createdAt,value
2023-03-13T00:02:45.458Z,3.70
2023-03-13T00:07:47.753Z,3.70
2023-03-13T00:12:49.988Z,3.70
2023-03-13T00:17:52.214Z,3.70
2023-03-13T00:22:54.439Z,3.70
2023-03-13T00:27:56.791Z,3.70
2023-03-13T00:32:59.093Z,3.70
2023-03-13T00:38:01.708Z,3.70
2023-03-13T00:43:04.026Z,3.70
2023-03-13T00:48:07.715Z,3.80
2023-03-13T00:53:10.219Z,3.80
2023-03-13T00:58:12.503Z,3.80
2023-03-13T01:03:15.072Z,3.80
2023-03-13T01:08:17.700Z,3.90
2023-03-13T01:13:19.909Z,3.90
2023-03-13T01:18:22.501Z,3.90
2023-03-13T01:23:24.810Z,4.00
2023-03-13T01:28:27.666Z,4.00
2023-03-13T01:33:30.240Z,4.10
2023-03-13T01:38:32.461Z,4.10
2023-03-13T01:43:37.071Z,4.20
2023-03-13T01:48:53.514Z,4.20
2023-03-13T01:53:59.684Z,4.30
2023-03-13T01:59:04.251Z,4.30
2023-03-13T02:04:07.144Z,4.40
2023-03-13T02:09:16.398Z,4.40
2023-03-13T02:14:22.499Z,4.40
2023-03-13T02:19:39.751Z,4.50
2023-03-13T02:25:07.014Z,4.60
2023-03-13T02:30:10.893Z,4.60
2023-03-13T02:35:16.872Z,4.70
2023-03-13T02:40:26.310Z,4.70
2023-03-13T02:45:29.181Z,4.80
2023-03-13T02:50:31.805Z,4.70
2023-03-13T02:55:41.588Z,4.80
2023-03-13T03:00:46.514Z,4.90
2023-03-13T03:05:49.091Z,4.90
2023-03-13T03:10:51.406Z,4.90
2023-03-13T03:15:54.156Z,5.00
2023-03-13T03:20:56.698Z,5.00
2023-03-13T03:25:59.195Z,5.00
2023-03-13T03:31:06.321Z,5.00
2023-03-13T03:36:13.763Z,5.00
2023-03-13T03:41:17.051Z,5.00
2023-03-13T03:46:19.709Z,5.00
2023-03-13T03:51:22.585Z,5.10
2023-03-13T03:56:25.083Z,5.00
2023-03-13T04:01:31.052Z,5.00
2023-03-13T04:06:33.625Z,5.00
2023-03-13T04:11:37.950Z,5.00
2023-03-13T04:16:42.094Z,5.00
2023-03-13T04:21:44.682Z,5.10
2023-03-13T04:26:55.050Z,5.00
2023-03-13T04:31:57.426Z,5.00
2023-03-13T04:37:25.963Z,5.00
2023-03-13T04:42:38.225Z,5.00
2023-03-13T04:48:03.828Z,5.10
2023-03-13T04:53:25.321Z,5.10
2023-03-13T04:58:36.192Z,5.20
2023-03-13T05:04:08.554Z,5.20
2023-03-13T05:09:33.762Z,5.20
2023-03-13T05:15:08.566Z,5.10
2023-03-13T05:20:16.451Z,5.10
2023-03-13T05:25:47.984Z,5.10
2023-03-13T05:30:58.859Z,5.20
2023-03-13T05:36:03.987Z,5.40
2023-03-13T05:41:35.642Z,5.60
2023-03-13T05:46:50.045Z,5.60
2023-03-13T05:51:52.262Z,5.70
2023-03-13T05:57:07.021Z,5.80
2023-03-13T06:02:20.884Z,5.90
2023-03-13T06:07:25.871Z,6.10
2023-03-13T06:12:28.798Z,6.30
2023-03-13T06:17:31.081Z,6.50
2023-03-13T06:22:33.383Z,6.60
2023-03-13T06:27:35.835Z,6.70
2023-03-13T06:32:38.272Z,6.90
2023-03-13T06:37:40.639Z,7.00
2023-03-13T06:42:42.906Z,7.10
2023-03-13T06:47:45.218Z,7.20
2023-03-13T06:52:50.364Z,7.30
2023-03-13T06:57:53.031Z,7.30
2023-03-13T07:02:55.481Z,7.40
2023-03-13T07:07:57.812Z,7.30
2023-03-13T07:13:00.171Z,7.40
2023-03-13T07:18:02.697Z,7.50
2023-03-13T07:23:05.554Z,7.60
2023-03-13T07:28:10.321Z,7.90
2023-03-13T07:33:16.667Z,7.90
2023-03-13T07:38:22.656Z,8.00
2023-03-13T07:43:30.813Z,8.00
2023-03-13T07:48:44.615Z,8.10
2023-03-13T07:54:06.543Z,8.10
2023-03-13T07:59:17.697Z,8.20
2023-03-13T08:04:25.037Z,8.20
2023-03-13T08:09:27.648Z,8.40
2023-03-13T08:14:30.206Z,8.60
2023-03-13T08:19:32.733Z,8.50
2023-03-13T08:24:35.133Z,8.80
2023-03-13T08:29:37.527Z,8.80
2023-03-13T08:34:39.934Z,8.80
2023-03-13T08:39:43.541Z,8.80
2023-03-13T08:44:46.052Z,8.90
2023-03-13T08:49:51.173Z,9.00
2023-03-13T08:54:53.985Z,9.20
2023-03-13T08:59:56.385Z,9.30
2023-03-13T09:04:58.687Z,9.30
2023-03-13T09:10:00.962Z,9.50
2023-03-13T09:15:03.361Z,9.50
2023-03-13T09:20:06.293Z,9.40
2023-03-13T09:25:09.163Z,9.40
2023-03-13T09:30:12.063Z,9.50
2023-03-13T09:35:14.588Z,9.60
2023-03-13T09:40:21.245Z,9.90
2023-03-13T09:45:34.401Z,10.10
2023-03-13T09:50:42.305Z,10.00
2023-03-13T09:55:45.792Z,9.80
2023-03-13T10:01:00.494Z,9.60
2023-03-13T10:06:06.880Z,9.60
2023-03-13T10:11:25.593Z,9.60
2023-03-13T10:16:34.908Z,9.70
2023-03-13T10:21:39.139Z,9.70
2023-03-13T10:26:41.440Z,9.70
2023-03-13T10:31:51.072Z,9.60
2023-03-13T10:37:01.958Z,9.40
2023-03-13T10:42:18.835Z,9.30
2023-03-13T10:47:21.180Z,9.20
2023-03-13T10:52:40.380Z,9.00
2023-03-13T10:57:52.672Z,9.10
2023-03-13T11:02:55.378Z,9.10
2023-03-13T11:07:57.770Z,9.20
2023-03-13T11:13:00.100Z,9.30
2023-03-13T11:18:07.639Z,9.40
2023-03-13T11:23:27.008Z,9.40
2023-03-13T11:28:42.479Z,9.40
2023-03-13T11:33:57.540Z,9.30
2023-03-13T11:39:33.840Z,9.40
2023-03-13T11:44:50.082Z,9.30
2023-03-13T11:50:12.630Z,9.10
2023-03-13T11:55:33.533Z,8.90
2023-03-13T12:00:41.797Z,8.90
2023-03-13T12:05:51.845Z,9.00
2023-03-13T12:11:17.169Z,9.00
2023-03-13T12:16:23.956Z,9.00
2023-03-13T12:21:37.124Z,9.00
2023-03-13T12:26:47.955Z,9.10
2023-03-13T12:32:27.714Z,9.10
2023-03-13T12:38:06.674Z,9.20
2023-03-13T12:43:18.260Z,9.20
2023-03-13T12:48:54.878Z,9.20
2023-03-13T12:54:11.008Z,9.20
2023-03-13T12:59:42.741Z,9.20
2023-03-13T13:04:48.828Z,9.20
2023-03-13T13:10:09.551Z,9.30
2023-03-13T13:15:29.872Z,9.40
2023-03-13T13:20:36.225Z,9.40
2023-03-13T13:25:38.551Z,9.40
2023-03-13T13:30:40.863Z,9.40
2023-03-13T13:35:43.313Z,9.50
2023-03-13T13:41:22.955Z,9.50
2023-03-13T13:46:33.306Z,9.80
2023-03-13T13:51:37.233Z,9.90
2023-03-13T13:56:43.821Z,10.10
2023-03-13T14:01:47.565Z,10.30
2023-03-13T14:06:52.041Z,10.40
2023-03-13T14:11:54.380Z,10.40
2023-03-13T14:16:57.758Z,10.40
2023-03-13T14:22:02.751Z,10.30
2023-03-13T14:27:19.314Z,10.40
2023-03-13T14:32:26.322Z,10.70
2023-03-13T14:37:43.227Z,11.20
2023-03-13T14:42:49.005Z,11.00
2023-03-13T14:47:53.338Z,10.90
2023-03-13T14:53:01.807Z,10.90
2023-03-13T14:58:27.075Z,11.30
2023-03-13T15:03:32.735Z,11.30
2023-03-13T15:08:38.175Z,11.40
2023-03-13T15:13:40.477Z,11.20
2023-03-13T15:18:42.772Z,11.30
2023-03-13T15:23:59.629Z,11.40
2023-03-13T15:29:01.923Z,11.50
2023-03-13T15:34:04.396Z,11.70
2023-03-13T15:39:19.313Z,11.60
2023-03-13T15:44:21.614Z,11.50
2023-03-13T15:49:23.900Z,11.40
2023-03-13T15:54:26.497Z,11.40
2023-03-13T15:59:28.803Z,11.40
2023-03-13T16:04:33.105Z,11.60
2023-03-13T16:09:35.410Z,11.40
2023-03-13T16:14:38.313Z,11.60
2023-03-13T16:19:40.637Z,11.70
2023-03-13T16:24:42.969Z,11.80
2023-03-13T16:29:46.154Z,11.80
2023-03-13T16:34:48.398Z,11.70
2023-03-13T16:39:51.437Z,11.70
2023-03-13T16:44:53.693Z,11.70
2023-03-13T16:49:56.021Z,11.50
2023-03-13T16:54:58.285Z,11.50
2023-03-13T17:00:00.529Z,11.40
2023-03-13T17:05:03.036Z,11.30
2023-03-13T17:10:16.189Z,11.30
2023-03-13T17:15:20.194Z,11.30
2023-03-13T17:20:28.130Z,11.30
2023-03-13T17:25:31.356Z,11.40
2023-03-13T17:30:34.030Z,11.40
2023-03-13T17:35:36.267Z,11.30
2023-03-13T17:40:38.548Z,11.30
2023-03-13T17:45:40.798Z,11.30
2023-03-13T17:50:43.137Z,11.30
2023-03-13T17:55:46.225Z,11.10
2023-03-13T18:00:48.809Z,11.20
2023-03-13T18:05:51.097Z,11.10
2023-03-13T18:10:53.365Z,11.00
2023-03-13T18:15:55.891Z,10.90
2023-03-13T18:20:58.144Z,10.80
2023-03-13T18:26:01.193Z,10.70
2023-03-13T18:31:03.553Z,10.70
2023-03-13T18:36:19.929Z,10.60
2023-03-13T18:41:22.713Z,10.60
2023-03-13T18:46:31.887Z,10.60
2023-03-13T18:51:34.175Z,10.50
2023-03-13T18:56:36.716Z,10.50
2023-03-13T19:01:39.098Z,10.60
2023-03-13T19:06:41.732Z,10.60
2023-03-13T19:11:44.939Z,10.50
2023-03-13T19:16:53.209Z,10.50
2023-03-13T19:21:56.334Z,10.60
2023-03-13T19:26:59.419Z,10.60
2023-03-13T19:32:05.156Z,10.70
2023-03-13T19:37:14.179Z,10.70
2023-03-13T19:42:16.481Z,10.80
2023-03-13T19:47:18.773Z,10.80
2023-03-13T19:52:21.050Z,10.90
2023-03-13T19:57:23.399Z,10.80
2023-03-13T20:02:25.722Z,10.80
2023-03-13T20:07:28.855Z,11.00
2023-03-13T20:12:31.562Z,11.00
2023-03-13T20:17:33.801Z,11.00
2023-03-13T20:22:36.107Z,11.30
2023-03-13T20:27:39.322Z,11.00
2023-03-13T20:32:52.947Z,11.00
2023-03-13T20:38:01.845Z,11.10
2023-03-13T20:43:04.453Z,11.30
2023-03-13T20:48:06.877Z,11.30
2023-03-13T20:53:10.253Z,11.30
2023-03-13T20:58:13.159Z,11.30
2023-03-13T21:03:17.270Z,11.30
2023-03-13T21:08:19.528Z,11.30
2023-03-13T21:13:21.782Z,11.50
2023-03-13T21:18:24.035Z,11.50
2023-03-13T21:23:26.314Z,11.50
2023-03-13T21:28:29.413Z,11.50
2023-03-13T21:33:31.645Z,11.70
2023-03-13T21:38:34.856Z,11.70
2023-03-13T21:43:38.662Z,11.70
2023-03-13T21:48:42.485Z,11.70
2023-03-13T21:53:44.896Z,11.70
2023-03-13T21:58:47.252Z,11.70
2023-03-13T22:03:49.923Z,11.60
2023-03-13T22:08:52.624Z,11.90
2023-03-13T22:13:54.905Z,11.70
2023-03-13T22:18:57.150Z,11.80
2023-03-13T22:23:59.585Z,11.90
2023-03-13T22:29:01.869Z,11.80
2023-03-13T22:34:04.185Z,11.90
2023-03-13T22:39:06.499Z,11.90
2023-03-13T22:44:08.922Z,11.90
2023-03-13T22:49:11.212Z,11.80
2023-03-13T22:54:13.492Z,11.90
2023-03-13T22:59:15.718Z,11.90
2023-03-13T23:04:17.977Z,12.00
2023-03-13T23:09:20.238Z,11.80
2023-03-13T23:14:22.492Z,11.80
2023-03-13T23:19:24.952Z,11.80
2023-03-13T23:24:27.729Z,11.80
2023-03-13T23:29:30.038Z,11.70
2023-03-13T23:34:32.697Z,11.70
2023-03-13T23:39:35.054Z,11.70
2023-03-13T23:51:14.292Z,11.50
2023-03-13T23:56:16.783Z,11.60
